sensor_id;sensor_type;location;lat;lon;timestamp;P1;durP1;ratioP1;P2;durP2;ratioP2
11100;SDS011;5604;50.722;7.078;2023-09-18T00:02:17;6.90;;;6.20;;
11100;SDS011;5604;50.722;7.078;2023-09-18T00:04:45;7.13;;;6.43;;
11100;SDS011;5604;50.722;7.078;2023-09-18T00:07:14;6.90;;;6.30;;
11100;SDS011;5604;50.722;7.078;2023-09-18T00:09:42;8.13;;;6.53;;
11100;SDS011;5604;50.722;7.078;2023-09-18T00:12:10;7.70;;;6.60;;
11100;SDS011;5604;50.722;7.078;2023-09-18T00:14:38;17.37;;;7.17;;
11100;SDS011;5604;50.722;7.078;2023-09-18T00:17:07;7.43;;;6.27;;
11100;SDS011;5604;50.722;7.078;2023-09-18T00:19:36;10.17;;;6.93;;
11100;SDS011;5604;50.722;7.078;2023-09-18T00:22:03;8.83;;;6.40;;
11100;SDS011;5604;50.722;7.078;2023-09-18T00:24:34;12.20;;;6.50;;
11100;SDS011;5604;50.722;7.078;2023-09-18T00:27:02;8.37;;;6.17;;
11100;SDS011;5604;50.722;7.078;2023-09-18T00:29:30;5.93;;;5.37;;
11100;SDS011;5604;50.722;7.078;2023-09-18T00:31:58;9.60;;;6.20;;
11100;SDS011;5604;50.722;7.078;2023-09-18T00:34:26;11.40;;;6.33;;
11100;SDS011;5604;50.722;7.078;2023-09-18T00:36:54;9.03;;;6.40;;
11100;SDS011;5604;50.722;7.078;2023-09-18T00:39:23;6.93;;;5.77;;
11100;SDS011;5604;50.722;7.078;2023-09-18T00:41:53;7.17;;;5.90;;
11100;SDS011;5604;50.722;7.078;2023-09-18T00:44:21;11.07;;;6.20;;
11100;SDS011;5604;50.722;7.078;2023-09-18T00:46:50;8.30;;;5.90;;
11100;SDS011;5604;50.722;7.078;2023-09-18T00:49:19;10.63;;;6.30;;
11100;SDS011;5604;50.722;7.078;2023-09-18T00:51:47;7.63;;;5.97;;
11100;SDS011;5604;50.722;7.078;2023-09-18T00:54:15;7.23;;;5.50;;
11100;SDS011;5604;50.722;7.078;2023-09-18T00:56:45;10.10;;;6.20;;
11100;SDS011;5604;50.722;7.078;2023-09-18T00:59:16;9.97;;;5.33;;
11100;SDS011;5604;50.722;7.078;2023-09-18T01:01:43;8.20;;;5.17;;
11100;SDS011;5604;50.722;7.078;2023-09-18T01:04:14;7.50;;;5.50;;
11100;SDS011;5604;50.722;7.078;2023-09-18T01:06:42;11.17;;;5.00;;
11100;SDS011;5604;50.722;7.078;2023-09-18T01:09:10;6.07;;;4.70;;
11100;SDS011;5604;50.722;7.078;2023-09-18T01:11:43;8.43;;;5.43;;
11100;SDS011;5604;50.722;7.078;2023-09-18T01:14:17;8.33;;;4.50;;
11100;SDS011;5604;50.722;7.078;2023-09-18T01:16:50;11.37;;;4.80;;
11100;SDS011;5604;50.722;7.078;2023-09-18T01:19:34;6.93;;;4.63;;
11100;SDS011;5604;50.722;7.078;2023-09-18T01:22:03;5.80;;;4.47;;
11100;SDS011;5604;50.722;7.078;2023-09-18T01:24:33;5.47;;;3.90;;
11100;SDS011;5604;50.722;7.078;2023-09-18T01:27:01;7.63;;;4.10;;
11100;SDS011;5604;50.722;7.078;2023-09-18T01:29:30;10.53;;;4.87;;
11100;SDS011;5604;50.722;7.078;2023-09-18T01:31:59;13.90;;;4.80;;
11100;SDS011;5604;50.722;7.078;2023-09-18T01:34:28;7.53;;;4.30;;
11100;SDS011;5604;50.722;7.078;2023-09-18T01:36:59;10.53;;;4.60;;
11100;SDS011;5604;50.722;7.078;2023-09-18T01:39:29;8.27;;;4.90;;
11100;SDS011;5604;50.722;7.078;2023-09-18T01:41:59;8.17;;;4.80;;
11100;SDS011;5604;50.722;7.078;2023-09-18T01:44:29;6.67;;;4.40;;
11100;SDS011;5604;50.722;7.078;2023-09-18T01:46:58;6.97;;;4.40;;
11100;SDS011;5604;50.722;7.078;2023-09-18T01:49:26;9.97;;;4.70;;
11100;SDS011;5604;50.722;7.078;2023-09-18T01:51:55;11.60;;;4.60;;
11100;SDS011;5604;50.722;7.078;2023-09-18T01:54:23;8.23;;;4.10;;
11100;SDS011;5604;50.722;7.078;2023-09-18T01:56:51;9.97;;;4.50;;
11100;SDS011;5604;50.722;7.078;2023-09-18T01:59:21;10.80;;;4.20;;
11100;SDS011;5604;50.722;7.078;2023-09-18T02:01:50;6.03;;;3.87;;
11100;SDS011;5604;50.722;7.078;2023-09-18T02:04:19;9.07;;;4.17;;
11100;SDS011;5604;50.722;7.078;2023-09-18T02:07:08;9.73;;;4.47;;
11100;SDS011;5604;50.722;7.078;2023-09-18T02:09:37;7.00;;;4.27;;
11100;SDS011;5604;50.722;7.078;2023-09-18T02:12:05;5.70;;;4.37;;
11100;SDS011;5604;50.722;7.078;2023-09-18T02:14:34;12.60;;;4.60;;
11100;SDS011;5604;50.722;7.078;2023-09-18T02:17:02;6.97;;;3.93;;
11100;SDS011;5604;50.722;7.078;2023-09-18T02:19:31;9.07;;;4.40;;
11100;SDS011;5604;50.722;7.078;2023-09-18T02:22:00;13.20;;;4.80;;
11100;SDS011;5604;50.722;7.078;2023-09-18T02:24:29;8.20;;;4.33;;
11100;SDS011;5604;50.722;7.078;2023-09-18T02:26:57;11.87;;;4.67;;
11100;SDS011;5604;50.722;7.078;2023-09-18T02:29:25;10.30;;;4.57;;
11100;SDS011;5604;50.722;7.078;2023-09-18T02:31:55;11.57;;;5.13;;
11100;SDS011;5604;50.722;7.078;2023-09-18T02:34:24;7.70;;;4.67;;
11100;SDS011;5604;50.722;7.078;2023-09-18T02:36:52;10.93;;;4.57;;
11100;SDS011;5604;50.722;7.078;2023-09-18T02:39:20;12.20;;;5.40;;
11100;SDS011;5604;50.722;7.078;2023-09-18T02:41:49;9.20;;;5.20;;
11100;SDS011;5604;50.722;7.078;2023-09-18T02:44:18;10.07;;;5.20;;
11100;SDS011;5604;50.722;7.078;2023-09-18T02:46:46;11.33;;;5.40;;
11100;SDS011;5604;50.722;7.078;2023-09-18T02:49:15;12.47;;;5.87;;
11100;SDS011;5604;50.722;7.078;2023-09-18T02:51:43;9.50;;;5.97;;
11100;SDS011;5604;50.722;7.078;2023-09-18T02:54:11;10.20;;;6.73;;
11100;SDS011;5604;50.722;7.078;2023-09-18T02:56:39;10.67;;;6.23;;
11100;SDS011;5604;50.722;7.078;2023-09-18T02:59:07;11.23;;;6.50;;
11100;SDS011;5604;50.722;7.078;2023-09-18T03:01:36;11.00;;;6.57;;
11100;SDS011;5604;50.722;7.078;2023-09-18T03:04:04;10.80;;;6.63;;
11100;SDS011;5604;50.722;7.078;2023-09-18T03:06:34;9.43;;;6.17;;
11100;SDS011;5604;50.722;7.078;2023-09-18T03:09:05;8.93;;;6.33;;
11100;SDS011;5604;50.722;7.078;2023-09-18T03:11:34;14.37;;;6.40;;
11100;SDS011;5604;50.722;7.078;2023-09-18T03:14:02;6.90;;;5.17;;
11100;SDS011;5604;50.722;7.078;2023-09-18T03:16:31;12.20;;;5.57;;
11100;SDS011;5604;50.722;7.078;2023-09-18T03:19:00;9.70;;;5.47;;
11100;SDS011;5604;50.722;7.078;2023-09-18T03:21:30;11.40;;;5.33;;
11100;SDS011;5604;50.722;7.078;2023-09-18T03:24:01;13.47;;;5.87;;
11100;SDS011;5604;50.722;7.078;2023-09-18T03:26:29;7.70;;;5.00;;
11100;SDS011;5604;50.722;7.078;2023-09-18T03:28:57;10.00;;;4.93;;
11100;SDS011;5604;50.722;7.078;2023-09-18T03:31:25;9.87;;;5.33;;
11100;SDS011;5604;50.722;7.078;2023-09-18T03:33:53;13.70;;;5.57;;
11100;SDS011;5604;50.722;7.078;2023-09-18T03:36:22;10.07;;;5.33;;
11100;SDS011;5604;50.722;7.078;2023-09-18T03:38:50;15.43;;;5.53;;
11100;SDS011;5604;50.722;7.078;2023-09-18T03:41:20;13.47;;;5.90;;
11100;SDS011;5604;50.722;7.078;2023-09-18T03:43:50;12.33;;;7.87;;
11100;SDS011;5604;50.722;7.078;2023-09-18T03:46:18;8.87;;;5.43;;
11100;SDS011;5604;50.722;7.078;2023-09-18T03:48:49;9.17;;;5.97;;
11100;SDS011;5604;50.722;7.078;2023-09-18T03:51:17;9.60;;;5.73;;
11100;SDS011;5604;50.722;7.078;2023-09-18T03:53:46;12.73;;;5.90;;
11100;SDS011;5604;50.722;7.078;2023-09-18T03:56:15;16.37;;;6.03;;
11100;SDS011;5604;50.722;7.078;2023-09-18T03:58:44;8.90;;;5.73;;
11100;SDS011;5604;50.722;7.078;2023-09-18T04:01:16;10.33;;;5.93;;
11100;SDS011;5604;50.722;7.078;2023-09-18T04:03:45;10.60;;;5.97;;
11100;SDS011;5604;50.722;7.078;2023-09-18T04:06:13;12.90;;;6.83;;
11100;SDS011;5604;50.722;7.078;2023-09-18T04:08:41;9.03;;;6.10;;
11100;SDS011;5604;50.722;7.078;2023-09-18T04:11:09;8.67;;;5.70;;
11100;SDS011;5604;50.722;7.078;2023-09-18T04:13:37;12.83;;;6.33;;
11100;SDS011;5604;50.722;7.078;2023-09-18T04:16:07;9.50;;;6.00;;
11100;SDS011;5604;50.722;7.078;2023-09-18T04:18:35;11.57;;;5.83;;
11100;SDS011;5604;50.722;7.078;2023-09-18T04:21:03;13.43;;;6.00;;
11100;SDS011;5604;50.722;7.078;2023-09-18T04:23:31;13.47;;;6.57;;
11100;SDS011;5604;50.722;7.078;2023-09-18T04:26:00;14.00;;;6.20;;
11100;SDS011;5604;50.722;7.078;2023-09-18T04:28:28;12.87;;;5.70;;
11100;SDS011;5604;50.722;7.078;2023-09-18T04:30:57;9.03;;;5.30;;
11100;SDS011;5604;50.722;7.078;2023-09-18T04:33:27;15.63;;;6.07;;
11100;SDS011;5604;50.722;7.078;2023-09-18T04:35:56;13.57;;;6.03;;
11100;SDS011;5604;50.722;7.078;2023-09-18T04:38:25;11.77;;;5.67;;
11100;SDS011;5604;50.722;7.078;2023-09-18T04:40:57;14.03;;;5.30;;
11100;SDS011;5604;50.722;7.078;2023-09-18T04:43:26;12.47;;;6.03;;
11100;SDS011;5604;50.722;7.078;2023-09-18T04:45:56;10.70;;;5.70;;
11100;SDS011;5604;50.722;7.078;2023-09-18T04:48:24;13.13;;;6.00;;
11100;SDS011;5604;50.722;7.078;2023-09-18T04:50:54;12.97;;;5.30;;
11100;SDS011;5604;50.722;7.078;2023-09-18T04:53:22;12.23;;;5.17;;
11100;SDS011;5604;50.722;7.078;2023-09-18T04:55:51;11.83;;;5.13;;
11100;SDS011;5604;50.722;7.078;2023-09-18T04:58:19;11.00;;;5.20;;
11100;SDS011;5604;50.722;7.078;2023-09-18T05:00:52;10.23;;;4.73;;
11100;SDS011;5604;50.722;7.078;2023-09-18T05:03:21;13.20;;;5.67;;
11100;SDS011;5604;50.722;7.078;2023-09-18T05:05:51;11.90;;;4.83;;
11100;SDS011;5604;50.722;7.078;2023-09-18T05:08:20;12.23;;;5.50;;
11100;SDS011;5604;50.722;7.078;2023-09-18T05:10:49;10.77;;;4.67;;
11100;SDS011;5604;50.722;7.078;2023-09-18T05:13:17;12.67;;;5.40;;
11100;SDS011;5604;50.722;7.078;2023-09-18T05:15:45;10.93;;;4.77;;
11100;SDS011;5604;50.722;7.078;2023-09-18T05:18:13;7.63;;;4.00;;
11100;SDS011;5604;50.722;7.078;2023-09-18T05:20:41;11.10;;;4.17;;
11100;SDS011;5604;50.722;7.078;2023-09-18T05:23:09;9.37;;;3.80;;
11100;SDS011;5604;50.722;7.078;2023-09-18T05:25:39;10.27;;;4.20;;
11100;SDS011;5604;50.722;7.078;2023-09-18T05:28:08;6.73;;;3.50;;
11100;SDS011;5604;50.722;7.078;2023-09-18T05:30:36;7.57;;;3.30;;
11100;SDS011;5604;50.722;7.078;2023-09-18T05:33:06;7.93;;;3.50;;
11100;SDS011;5604;50.722;7.078;2023-09-18T05:35:37;8.17;;;3.57;;
11100;SDS011;5604;50.722;7.078;2023-09-18T05:38:08;8.20;;;3.23;;
11100;SDS011;5604;50.722;7.078;2023-09-18T05:40:38;7.57;;;2.93;;
11100;SDS011;5604;50.722;7.078;2023-09-18T05:43:07;6.97;;;2.63;;
11100;SDS011;5604;50.722;7.078;2023-09-18T05:45:36;7.83;;;3.37;;
11100;SDS011;5604;50.722;7.078;2023-09-18T05:48:04;5.73;;;2.67;;
11100;SDS011;5604;50.722;7.078;2023-09-18T05:50:34;10.70;;;3.03;;
11100;SDS011;5604;50.722;7.078;2023-09-18T05:53:03;6.10;;;2.83;;
11100;SDS011;5604;50.722;7.078;2023-09-18T05:55:32;4.53;;;2.50;;
11100;SDS011;5604;50.722;7.078;2023-09-18T05:58:01;5.07;;;2.80;;
11100;SDS011;5604;50.722;7.078;2023-09-18T06:00:31;7.73;;;3.03;;
11100;SDS011;5604;50.722;7.078;2023-09-18T06:03:00;8.27;;;2.73;;
11100;SDS011;5604;50.722;7.078;2023-09-18T06:05:28;5.73;;;3.30;;
11100;SDS011;5604;50.722;7.078;2023-09-18T06:07:58;3.57;;;2.30;;
11100;SDS011;5604;50.722;7.078;2023-09-18T06:10:27;6.17;;;2.47;;
11100;SDS011;5604;50.722;7.078;2023-09-18T06:12:55;5.83;;;2.77;;
11100;SDS011;5604;50.722;7.078;2023-09-18T06:15:25;5.47;;;2.60;;
11100;SDS011;5604;50.722;7.078;2023-09-18T06:17:53;6.13;;;2.40;;
11100;SDS011;5604;50.722;7.078;2023-09-18T06:20:21;7.60;;;2.80;;
11100;SDS011;5604;50.722;7.078;2023-09-18T06:22:49;6.70;;;2.67;;
11100;SDS011;5604;50.722;7.078;2023-09-18T06:25:17;4.03;;;2.40;;
11100;SDS011;5604;50.722;7.078;2023-09-18T06:27:47;6.40;;;2.17;;
11100;SDS011;5604;50.722;7.078;2023-09-18T06:30:15;5.30;;;2.40;;
11100;SDS011;5604;50.722;7.078;2023-09-18T06:32:44;5.67;;;2.17;;
11100;SDS011;5604;50.722;7.078;2023-09-18T06:35:12;6.90;;;2.90;;
11100;SDS011;5604;50.722;7.078;2023-09-18T06:37:40;8.37;;;2.33;;
11100;SDS011;5604;50.722;7.078;2023-09-18T06:40:08;4.37;;;2.67;;
11100;SDS011;5604;50.722;7.078;2023-09-18T06:42:37;4.60;;;2.77;;
11100;SDS011;5604;50.722;7.078;2023-09-18T06:45:06;9.30;;;2.70;;
11100;SDS011;5604;50.722;7.078;2023-09-18T06:47:35;3.57;;;2.00;;
11100;SDS011;5604;50.722;7.078;2023-09-18T06:50:05;4.67;;;1.93;;
11100;SDS011;5604;50.722;7.078;2023-09-18T06:52:33;6.27;;;1.80;;
11100;SDS011;5604;50.722;7.078;2023-09-18T06:55:01;4.00;;;1.70;;
11100;SDS011;5604;50.722;7.078;2023-09-18T06:57:29;7.60;;;2.17;;
11100;SDS011;5604;50.722;7.078;2023-09-18T06:59:57;4.77;;;2.03;;
11100;SDS011;5604;50.722;7.078;2023-09-18T07:02:25;3.67;;;1.83;;
11100;SDS011;5604;50.722;7.078;2023-09-18T07:04:53;4.00;;;1.80;;
11100;SDS011;5604;50.722;7.078;2023-09-18T07:07:23;4.10;;;2.23;;
11100;SDS011;5604;50.722;7.078;2023-09-18T07:09:52;2.47;;;1.47;;
11100;SDS011;5604;50.722;7.078;2023-09-18T07:12:30;5.93;;;2.10;;
11100;SDS011;5604;50.722;7.078;2023-09-18T07:14:59;4.47;;;1.90;;
11100;SDS011;5604;50.722;7.078;2023-09-18T07:17:30;3.83;;;2.30;;
11100;SDS011;5604;50.722;7.078;2023-09-18T07:19:58;6.47;;;2.07;;
11100;SDS011;5604;50.722;7.078;2023-09-18T07:22:28;6.10;;;2.00;;
11100;SDS011;5604;50.722;7.078;2023-09-18T07:24:57;4.97;;;1.90;;
11100;SDS011;5604;50.722;7.078;2023-09-18T07:27:25;6.90;;;2.40;;
11100;SDS011;5604;50.722;7.078;2023-09-18T07:29:55;7.10;;;2.83;;
11100;SDS011;5604;50.722;7.078;2023-09-18T07:32:23;5.20;;;2.20;;
11100;SDS011;5604;50.722;7.078;2023-09-18T07:35:03;3.37;;;2.07;;
11100;SDS011;5604;50.722;7.078;2023-09-18T07:37:33;4.40;;;2.10;;
11100;SDS011;5604;50.722;7.078;2023-09-18T07:40:02;5.47;;;2.07;;
11100;SDS011;5604;50.722;7.078;2023-09-18T07:42:30;2.47;;;2.10;;
11100;SDS011;5604;50.722;7.078;2023-09-18T07:44:58;2.50;;;1.60;;
11100;SDS011;5604;50.722;7.078;2023-09-18T07:47:26;5.50;;;1.80;;
11100;SDS011;5604;50.722;7.078;2023-09-18T07:49:55;5.47;;;1.80;;
11100;SDS011;5604;50.722;7.078;2023-09-18T07:52:23;2.97;;;1.77;;
11100;SDS011;5604;50.722;7.078;2023-09-18T07:54:52;4.53;;;2.33;;
11100;SDS011;5604;50.722;7.078;2023-09-18T07:57:20;2.80;;;1.90;;
11100;SDS011;5604;50.722;7.078;2023-09-18T07:59:49;4.10;;;2.13;;
11100;SDS011;5604;50.722;7.078;2023-09-18T08:02:17;2.07;;;1.70;;
11100;SDS011;5604;50.722;7.078;2023-09-18T08:04:46;3.83;;;2.07;;
11100;SDS011;5604;50.722;7.078;2023-09-18T08:07:14;5.30;;;1.63;;
11100;SDS011;5604;50.722;7.078;2023-09-18T08:09:42;4.93;;;2.27;;
11100;SDS011;5604;50.722;7.078;2023-09-18T08:12:12;5.37;;;2.20;;
11100;SDS011;5604;50.722;7.078;2023-09-18T08:14:40;3.10;;;2.07;;
11100;SDS011;5604;50.722;7.078;2023-09-18T08:17:08;3.47;;;1.97;;
11100;SDS011;5604;50.722;7.078;2023-09-18T08:19:36;4.07;;;2.17;;
11100;SDS011;5604;50.722;7.078;2023-09-18T08:22:06;5.30;;;1.93;;
11100;SDS011;5604;50.722;7.078;2023-09-18T08:24:34;5.77;;;2.37;;
11100;SDS011;5604;50.722;7.078;2023-09-18T08:27:02;3.57;;;1.93;;
11100;SDS011;5604;50.722;7.078;2023-09-18T08:29:32;3.00;;;1.93;;
11100;SDS011;5604;50.722;7.078;2023-09-18T08:32:00;6.40;;;1.93;;
11100;SDS011;5604;50.722;7.078;2023-09-18T08:34:28;3.87;;;1.80;;
11100;SDS011;5604;50.722;7.078;2023-09-18T08:36:56;4.37;;;1.80;;
11100;SDS011;5604;50.722;7.078;2023-09-18T08:39:24;3.70;;;2.00;;
11100;SDS011;5604;50.722;7.078;2023-09-18T08:41:53;1.93;;;1.67;;
11100;SDS011;5604;50.722;7.078;2023-09-18T08:44:26;4.13;;;2.07;;
11100;SDS011;5604;50.722;7.078;2023-09-18T08:46:56;3.53;;;2.03;;
11100;SDS011;5604;50.722;7.078;2023-09-18T08:49:25;4.70;;;1.87;;
11100;SDS011;5604;50.722;7.078;2023-09-18T08:51:55;1.80;;;1.60;;
11100;SDS011;5604;50.722;7.078;2023-09-18T08:54:23;4.97;;;1.73;;
11100;SDS011;5604;50.722;7.078;2023-09-18T08:56:51;3.93;;;1.70;;
11100;SDS011;5604;50.722;7.078;2023-09-18T08:59:20;3.23;;;1.87;;
11100;SDS011;5604;50.722;7.078;2023-09-18T09:01:49;4.00;;;1.67;;
11100;SDS011;5604;50.722;7.078;2023-09-18T09:04:18;3.40;;;1.87;;
11100;SDS011;5604;50.722;7.078;2023-09-18T09:06:48;6.20;;;2.23;;
11100;SDS011;5604;50.722;7.078;2023-09-18T09:09:16;1.77;;;1.50;;
11100;SDS011;5604;50.722;7.078;2023-09-18T09:11:49;3.77;;;1.80;;
11100;SDS011;5604;50.722;7.078;2023-09-18T09:14:17;4.17;;;1.80;;
11100;SDS011;5604;50.722;7.078;2023-09-18T09:16:49;2.47;;;2.00;;
11100;SDS011;5604;50.722;7.078;2023-09-18T09:19:27;2.50;;;1.37;;
11100;SDS011;5604;50.722;7.078;2023-09-18T09:21:56;2.63;;;1.60;;
11100;SDS011;5604;50.722;7.078;2023-09-18T09:27:11;5.20;;;2.10;;
11100;SDS011;5604;50.722;7.078;2023-09-18T09:29:42;4.77;;;1.70;;
11100;SDS011;5604;50.722;7.078;2023-09-18T09:32:12;3.83;;;1.50;;
11100;SDS011;5604;50.722;7.078;2023-09-18T09:34:42;5.77;;;1.70;;
11100;SDS011;5604;50.722;7.078;2023-09-18T09:37:11;4.07;;;1.63;;
11100;SDS011;5604;50.722;7.078;2023-09-18T09:39:47;4.80;;;1.90;;
11100;SDS011;5604;50.722;7.078;2023-09-18T09:42:16;4.27;;;2.03;;
11100;SDS011;5604;50.722;7.078;2023-09-18T09:45:00;5.30;;;1.77;;
11100;SDS011;5604;50.722;7.078;2023-09-18T09:47:32;3.10;;;1.63;;
11100;SDS011;5604;50.722;7.078;2023-09-18T09:50:06;4.07;;;1.57;;
11100;SDS011;5604;50.722;7.078;2023-09-18T09:52:36;3.93;;;1.40;;
11100;SDS011;5604;50.722;7.078;2023-09-18T09:55:19;5.50;;;1.73;;
11100;SDS011;5604;50.722;7.078;2023-09-18T09:57:52;2.67;;;1.60;;
11100;SDS011;5604;50.722;7.078;2023-09-18T10:00:24;5.13;;;1.40;;
11100;SDS011;5604;50.722;7.078;2023-09-18T10:02:57;4.37;;;1.73;;
11100;SDS011;5604;50.722;7.078;2023-09-18T10:05:29;3.10;;;1.60;;
11100;SDS011;5604;50.722;7.078;2023-09-18T10:08:00;2.53;;;1.67;;
11100;SDS011;5604;50.722;7.078;2023-09-18T10:10:32;2.03;;;1.40;;
11100;SDS011;5604;50.722;7.078;2023-09-18T10:13:05;3.63;;;1.40;;
11100;SDS011;5604;50.722;7.078;2023-09-18T10:15:36;4.23;;;1.73;;
11100;SDS011;5604;50.722;7.078;2023-09-18T10:18:16;2.10;;;1.30;;
11100;SDS011;5604;50.722;7.078;2023-09-18T10:20:48;2.53;;;1.10;;
11100;SDS011;5604;50.722;7.078;2023-09-18T10:23:21;2.60;;;1.40;;
11100;SDS011;5604;50.722;7.078;2023-09-18T10:25:56;3.17;;;1.40;;
11100;SDS011;5604;50.722;7.078;2023-09-18T10:28:26;3.27;;;1.40;;
11100;SDS011;5604;50.722;7.078;2023-09-18T10:30:57;4.00;;;1.40;;
11100;SDS011;5604;50.722;7.078;2023-09-18T10:33:26;3.60;;;1.33;;
11100;SDS011;5604;50.722;7.078;2023-09-18T10:35:56;1.60;;;1.10;;
11100;SDS011;5604;50.722;7.078;2023-09-18T10:38:24;1.13;;;1.00;;
11100;SDS011;5604;50.722;7.078;2023-09-18T10:40:52;2.77;;;1.23;;
11100;SDS011;5604;50.722;7.078;2023-09-18T10:43:21;3.37;;;1.40;;
11100;SDS011;5604;50.722;7.078;2023-09-18T10:45:49;4.20;;;1.17;;
11100;SDS011;5604;50.722;7.078;2023-09-18T10:48:19;2.60;;;1.00;;
11100;SDS011;5604;50.722;7.078;2023-09-18T10:50:49;1.37;;;1.10;;
11100;SDS011;5604;50.722;7.078;2023-09-18T10:53:19;1.23;;;1.13;;
11100;SDS011;5604;50.722;7.078;2023-09-18T10:55:49;4.07;;;1.47;;
11100;SDS011;5604;50.722;7.078;2023-09-18T10:58:25;1.93;;;1.20;;
11100;SDS011;5604;50.722;7.078;2023-09-18T11:00:53;3.23;;;1.20;;
11100;SDS011;5604;50.722;7.078;2023-09-18T11:03:24;1.63;;;1.30;;
11100;SDS011;5604;50.722;7.078;2023-09-18T11:06:02;1.27;;;0.97;;
11100;SDS011;5604;50.722;7.078;2023-09-18T11:08:34;2.37;;;1.40;;
11100;SDS011;5604;50.722;7.078;2023-09-18T11:11:05;3.20;;;1.50;;
11100;SDS011;5604;50.722;7.078;2023-09-18T11:13:39;2.07;;;1.20;;
11100;SDS011;5604;50.722;7.078;2023-09-18T11:16:18;1.53;;;1.20;;
11100;SDS011;5604;50.722;7.078;2023-09-18T11:19:16;3.53;;;1.30;;
11100;SDS011;5604;50.722;7.078;2023-09-18T11:21:46;2.13;;;1.23;;
11100;SDS011;5604;50.722;7.078;2023-09-18T11:24:19;1.30;;;1.20;;
11100;SDS011;5604;50.722;7.078;2023-09-18T11:26:49;2.93;;;1.30;;
11100;SDS011;5604;50.722;7.078;2023-09-18T11:29:21;2.63;;;1.50;;
11100;SDS011;5604;50.722;7.078;2023-09-18T11:31:50;1.20;;;1.10;;
11100;SDS011;5604;50.722;7.078;2023-09-18T11:34:21;1.73;;;1.20;;
11100;SDS011;5604;50.722;7.078;2023-09-18T11:36:50;1.70;;;1.00;;
11100;SDS011;5604;50.722;7.078;2023-09-18T11:39:36;3.97;;;1.20;;
11100;SDS011;5604;50.722;7.078;2023-09-18T11:42:06;3.20;;;1.60;;
11100;SDS011;5604;50.722;7.078;2023-09-18T11:44:36;1.93;;;1.17;;
11100;SDS011;5604;50.722;7.078;2023-09-18T11:47:09;3.73;;;1.30;;
11100;SDS011;5604;50.722;7.078;2023-09-18T11:49:48;2.53;;;1.53;;
11100;SDS011;5604;50.722;7.078;2023-09-18T11:52:22;3.30;;;1.40;;
11100;SDS011;5604;50.722;7.078;2023-09-18T11:54:52;1.47;;;1.20;;
11100;SDS011;5604;50.722;7.078;2023-09-18T11:57:21;3.47;;;1.40;;
11100;SDS011;5604;50.722;7.078;2023-09-18T11:59:49;1.33;;;1.20;;
11100;SDS011;5604;50.722;7.078;2023-09-18T12:02:24;2.93;;;1.20;;
11100;SDS011;5604;50.722;7.078;2023-09-18T12:04:54;3.70;;;1.57;;
11100;SDS011;5604;50.722;7.078;2023-09-18T12:07:23;2.63;;;1.23;;
11100;SDS011;5604;50.722;7.078;2023-09-18T12:09:53;2.13;;;1.47;;
11100;SDS011;5604;50.722;7.078;2023-09-18T12:12:22;2.67;;;1.33;;
11100;SDS011;5604;50.722;7.078;2023-09-18T12:14:51;1.30;;;1.10;;
11100;SDS011;5604;50.722;7.078;2023-09-18T12:17:19;2.83;;;1.40;;
11100;SDS011;5604;50.722;7.078;2023-09-18T12:19:51;1.70;;;1.40;;
11100;SDS011;5604;50.722;7.078;2023-09-18T12:22:24;2.67;;;1.30;;
11100;SDS011;5604;50.722;7.078;2023-09-18T12:25:09;3.70;;;1.40;;
11100;SDS011;5604;50.722;7.078;2023-09-18T12:27:42;4.47;;;1.40;;
11100;SDS011;5604;50.722;7.078;2023-09-18T12:30:10;2.80;;;1.20;;
11100;SDS011;5604;50.722;7.078;2023-09-18T12:32:41;3.97;;;1.30;;
11100;SDS011;5604;50.722;7.078;2023-09-18T12:35:13;1.63;;;1.37;;
11100;SDS011;5604;50.722;7.078;2023-09-18T12:37:41;3.10;;;1.37;;
11100;SDS011;5604;50.722;7.078;2023-09-18T12:40:21;1.93;;;1.20;;
11100;SDS011;5604;50.722;7.078;2023-09-18T12:42:50;2.03;;;1.50;;
11100;SDS011;5604;50.722;7.078;2023-09-18T12:45:20;1.30;;;1.10;;
11100;SDS011;5604;50.722;7.078;2023-09-18T12:47:48;1.80;;;1.20;;
11100;SDS011;5604;50.722;7.078;2023-09-18T12:50:17;4.73;;;1.60;;
11100;SDS011;5604;50.722;7.078;2023-09-18T12:52:46;2.93;;;1.37;;
11100;SDS011;5604;50.722;7.078;2023-09-18T12:55:21;3.33;;;1.20;;
11100;SDS011;5604;50.722;7.078;2023-09-18T12:57:51;1.40;;;1.20;;
11100;SDS011;5604;50.722;7.078;2023-09-18T13:00:19;2.93;;;1.80;;
11100;SDS011;5604;50.722;7.078;2023-09-18T13:02:49;2.77;;;1.30;;
11100;SDS011;5604;50.722;7.078;2023-09-18T13:05:21;2.23;;;1.30;;
11100;SDS011;5604;50.722;7.078;2023-09-18T13:07:52;3.07;;;1.40;;
11100;SDS011;5604;50.722;7.078;2023-09-18T13:10:22;2.23;;;1.40;;
11100;SDS011;5604;50.722;7.078;2023-09-18T13:12:54;2.60;;;1.43;;
11100;SDS011;5604;50.722;7.078;2023-09-18T13:15:24;1.47;;;1.10;;
11100;SDS011;5604;50.722;7.078;2023-09-18T13:17:54;1.80;;;1.33;;
11100;SDS011;5604;50.722;7.078;2023-09-18T13:20:24;3.10;;;1.50;;
11100;SDS011;5604;50.722;7.078;2023-09-18T13:22:54;2.90;;;1.43;;
11100;SDS011;5604;50.722;7.078;2023-09-18T13:25:24;1.80;;;1.50;;
11100;SDS011;5604;50.722;7.078;2023-09-18T13:27:53;3.03;;;1.47;;
11100;SDS011;5604;50.722;7.078;2023-09-18T13:30:21;1.70;;;1.27;;
11100;SDS011;5604;50.722;7.078;2023-09-18T13:32:50;4.13;;;1.70;;
11100;SDS011;5604;50.722;7.078;2023-09-18T13:35:18;2.20;;;1.30;;
11100;SDS011;5604;50.722;7.078;2023-09-18T13:37:47;2.70;;;1.63;;
11100;SDS011;5604;50.722;7.078;2023-09-18T13:40:15;2.63;;;1.37;;
11100;SDS011;5604;50.722;7.078;2023-09-18T13:42:44;3.57;;;1.23;;
11100;SDS011;5604;50.722;7.078;2023-09-18T13:45:14;1.67;;;1.37;;
11100;SDS011;5604;50.722;7.078;2023-09-18T13:47:44;1.80;;;1.20;;
11100;SDS011;5604;50.722;7.078;2023-09-18T13:50:12;2.00;;;1.70;;
11100;SDS011;5604;50.722;7.078;2023-09-18T13:52:41;2.33;;;1.20;;
11100;SDS011;5604;50.722;7.078;2023-09-18T13:55:09;3.80;;;1.30;;
11100;SDS011;5604;50.722;7.078;2023-09-18T13:57:37;1.83;;;1.40;;
11100;SDS011;5604;50.722;7.078;2023-09-18T14:00:08;5.10;;;1.53;;
11100;SDS011;5604;50.722;7.078;2023-09-18T14:02:38;2.50;;;1.37;;
11100;SDS011;5604;50.722;7.078;2023-09-18T14:05:07;2.03;;;1.53;;
11100;SDS011;5604;50.722;7.078;2023-09-18T14:07:42;3.03;;;1.50;;
11100;SDS011;5604;50.722;7.078;2023-09-18T14:10:15;5.23;;;1.50;;
11100;SDS011;5604;50.722;7.078;2023-09-18T14:12:45;2.10;;;1.50;;
11100;SDS011;5604;50.722;7.078;2023-09-18T14:15:14;2.50;;;1.40;;
11100;SDS011;5604;50.722;7.078;2023-09-18T14:17:54;2.43;;;1.50;;
11100;SDS011;5604;50.722;7.078;2023-09-18T14:20:23;2.80;;;1.43;;
11100;SDS011;5604;50.722;7.078;2023-09-18T14:22:51;3.20;;;1.70;;
11100;SDS011;5604;50.722;7.078;2023-09-18T14:25:20;2.17;;;1.30;;
11100;SDS011;5604;50.722;7.078;2023-09-18T14:27:52;2.80;;;1.40;;
11100;SDS011;5604;50.722;7.078;2023-09-18T14:30:22;1.87;;;1.10;;
11100;SDS011;5604;50.722;7.078;2023-09-18T14:32:57;3.90;;;1.40;;
11100;SDS011;5604;50.722;7.078;2023-09-18T14:35:27;4.77;;;1.50;;
11100;SDS011;5604;50.722;7.078;2023-09-18T14:37:55;3.17;;;1.30;;
11100;SDS011;5604;50.722;7.078;2023-09-18T14:40:24;3.17;;;1.57;;
11100;SDS011;5604;50.722;7.078;2023-09-18T14:42:52;3.20;;;1.67;;
11100;SDS011;5604;50.722;7.078;2023-09-18T14:45:22;1.40;;;1.30;;
11100;SDS011;5604;50.722;7.078;2023-09-18T14:47:50;2.37;;;1.30;;
11100;SDS011;5604;50.722;7.078;2023-09-18T14:50:19;2.13;;;1.40;;
11100;SDS011;5604;50.722;7.078;2023-09-18T14:52:48;2.97;;;1.47;;
11100;SDS011;5604;50.722;7.078;2023-09-18T14:55:16;2.40;;;1.40;;
11100;SDS011;5604;50.722;7.078;2023-09-18T14:57:44;3.13;;;1.17;;
11100;SDS011;5604;50.722;7.078;2023-09-18T15:00:20;2.77;;;1.57;;
11100;SDS011;5604;50.722;7.078;2023-09-18T15:02:50;1.40;;;1.30;;
11100;SDS011;5604;50.722;7.078;2023-09-18T15:05:19;3.30;;;1.40;;
11100;SDS011;5604;50.722;7.078;2023-09-18T15:07:47;1.60;;;1.20;;
11100;SDS011;5604;50.722;7.078;2023-09-18T15:10:15;2.97;;;1.77;;
11100;SDS011;5604;50.722;7.078;2023-09-18T15:12:43;2.37;;;1.30;;
11100;SDS011;5604;50.722;7.078;2023-09-18T15:15:11;2.00;;;1.30;;
11100;SDS011;5604;50.722;7.078;2023-09-18T15:17:40;2.77;;;1.40;;